Time;durP1;ratioP1;P1;durP2;ratioP2;P2;SDS_P1;SDS_P2;PMS_P1;PMS_P2;Temp;Humidity;BMP_temperature;BMP_pressure;BME280_temperature;BME280_humidity;BME280_pressure;Samples;Min_cycle;Max_cycle;Signal;HPM_P1;HPM_P2
2023/08/14 00:00:15;;;;;;;4.67;3.93;;;22.60;99.90;;;;;;5034050;28;20549;-82
2023/08/14 00:02:42;;;;;;;5.20;4.70;;;22.50;99.90;;;;;;5035258;28;20549;-80
2023/08/14 00:05:09;;;;;;;4.10;3.80;;;22.50;99.90;;;;;;5034246;28;20553;-81
2023/08/14 00:07:36;;;;;;;4.60;4.20;;;22.50;99.90;;;;;;5034994;28;20858;-81
2023/08/14 00:10:05;;;;;;;4.80;3.80;;;22.40;99.90;;;;;;5033986;28;20984;-81
2023/08/14 00:12:32;;;;;;;5.80;4.40;;;22.40;99.90;;;;;;5034042;28;20463;-79
2023/08/14 00:14:59;;;;;;;4.90;4.37;;;22.40;99.90;;;;;;5033631;28;20472;-80
2023/08/14 00:17:26;;;;;;;4.57;4.10;;;22.40;99.90;;;;;;5022820;28;20555;-81
2023/08/14 00:19:53;;;;;;;4.90;4.50;;;22.40;99.90;;;;;;5034062;28;20464;-81
2023/08/14 00:22:20;;;;;;;4.30;3.87;;;22.30;99.90;;;;;;5034672;28;20537;-79
2023/08/14 00:24:47;;;;;;;3.93;3.63;;;22.30;99.90;;;;;;5035017;28;20475;-81
2023/08/14 00:27:15;;;;;;;4.47;4.17;;;22.30;99.90;;;;;;5034389;28;20860;-81
2023/08/14 00:29:42;;;;;;;5.37;5.00;;;22.20;99.90;;;;;;5034483;28;20864;-79
2023/08/14 00:32:09;;;;;;;5.43;4.53;;;22.20;99.90;;;;;;5033492;28;20543;-81
2023/08/14 00:34:36;;;;;;;3.93;3.63;;;22.20;99.90;;;;;;5032499;28;21006;-79
2023/08/14 00:37:05;;;;;;;4.73;4.00;;;22.20;99.90;;;;;;5034553;28;20565;-81
2023/08/14 00:39:31;;;;;;;5.87;5.37;;;22.10;99.90;;;;;;5033704;28;20552;-79
2023/08/14 00:41:58;;;;;;;5.13;4.30;;;22.10;99.90;;;;;;5033743;28;20464;-79
2023/08/14 00:44:28;;;;;;;4.80;4.40;;;22.10;99.90;;;;;;5033064;28;20492;-79
2023/08/14 00:46:58;;;;;;;4.10;3.80;;;22.10;99.90;;;;;;5033452;28;20464;-78
2023/08/14 00:49:26;;;;;;;4.73;4.43;;;22.00;99.90;;;;;;5032880;28;20526;-79
2023/08/14 00:51:54;;;;;;;4.43;4.03;;;22.00;99.90;;;;;;5033544;28;20475;-78
2023/08/14 00:54:20;;;;;;;5.40;5.00;;;22.00;99.90;;;;;;5033186;28;20567;-80
2023/08/14 00:56:48;;;;;;;4.60;4.27;;;22.00;99.90;;;;;;5033885;28;20471;-79
2023/08/14 00:59:17;;;;;;;4.80;4.50;;;22.00;99.90;;;;;;5033017;28;20860;-77
2023/08/14 01:01:48;;;;;;;4.60;4.30;;;22.00;99.90;;;;;;5032990;28;20469;-78
2023/08/14 01:04:14;;;;;;;4.40;4.10;;;22.00;99.90;;;;;;5033164;28;20968;-78
2023/08/14 01:06:41;;;;;;;4.43;4.07;;;22.00;99.90;;;;;;5032709;28;20492;-78
2023/08/14 01:09:09;;;;;;;5.30;4.90;;;22.00;99.90;;;;;;5033002;28;20500;-80
2023/08/14 01:11:46;;;;;;;5.00;4.60;;;21.90;99.90;;;;;;5032258;28;20975;-80
2023/08/14 01:14:18;;;;;;;5.70;5.30;;;21.90;99.90;;;;;;5033165;28;20559;-80
2023/08/14 01:16:57;;;;;;;6.10;5.60;;;21.90;99.90;;;;;;5033176;28;20456;-78
2023/08/14 01:19:30;;;;;;;6.70;5.80;;;21.90;99.90;;;;;;5032753;28;20487;-80
2023/08/14 01:22:04;;;;;;;8.00;6.07;;;21.90;99.90;;;;;;5032808;28;20464;-79
2023/08/14 01:24:46;;;;;;;6.90;6.20;;;21.80;99.90;;;;;;5032887;28;20476;-78
2023/08/14 01:27:17;;;;;;;7.03;6.50;;;21.80;99.90;;;;;;5033131;28;20496;-81
2023/08/14 01:29:45;;;;;;;6.07;5.57;;;21.80;99.90;;;;;;5032929;28;20491;-78
2023/08/14 01:32:12;;;;;;;6.67;6.07;;;21.80;99.90;;;;;;5033355;28;20468;-79
2023/08/14 01:34:39;;;;;;;5.73;5.33;;;21.80;99.90;;;;;;5032530;28;20968;-81
2023/08/14 01:37:15;;;;;;;6.00;5.53;;;21.80;99.90;;;;;;5033103;28;20480;-79
2023/08/14 01:39:47;;;;;;;6.53;5.50;;;21.80;99.90;;;;;;5032561;28;20480;-78
2023/08/14 01:42:22;;;;;;;5.80;5.30;;;21.80;99.90;;;;;;5032847;28;20555;-78
2023/08/14 01:44:53;;;;;;;5.87;5.47;;;21.80;99.90;;;;;;5032929;28;20538;-80
2023/08/14 01:47:23;;;;;;;5.67;5.17;;;21.80;99.90;;;;;;5032376;28;20476;-78
2023/08/14 01:49:54;;;;;;;6.10;5.60;;;21.70;99.90;;;;;;5032063;28;20494;-83
2023/08/14 01:52:22;;;;;;;5.80;5.30;;;21.70;99.90;;;;;;5032757;28;20492;-80
2023/08/14 01:54:48;;;;;;;7.83;5.57;;;21.70;99.90;;;;;;5032592;28;20470;-80
2023/08/14 01:57:17;;;;;;;5.03;4.70;;;21.80;99.90;;;;;;5033140;28;20925;-79
2023/08/14 01:59:47;;;;;;;5.10;4.70;;;21.80;99.90;;;;;;5032444;28;20503;-79
2023/08/14 02:02:17;;;;;;;5.97;5.37;;;21.70;99.90;;;;;;5032979;28;20476;-77
2023/08/14 02:04:44;;;;;;;5.10;4.70;;;21.70;99.90;;;;;;5032385;28;20504;-78
2023/08/14 02:07:11;;;;;;;4.97;4.67;;;21.70;99.90;;;;;;5032694;28;20464;-78
2023/08/14 02:09:38;;;;;;;4.90;4.50;;;21.70;99.90;;;;;;5033107;28;20468;-79
2023/08/14 02:12:06;;;;;;;4.70;4.40;;;21.70;99.90;;;;;;5036196;28;20557;-77
2023/08/14 02:14:34;;;;;;;4.80;4.40;;;21.70;99.90;;;;;;5035806;28;20543;-80
2023/08/14 02:17:01;;;;;;;5.80;5.33;;;21.70;99.90;;;;;;5036528;28;20547;-81
2023/08/14 02:19:28;;;;;;;5.57;4.53;;;21.70;99.90;;;;;;5036168;28;20463;-78
2023/08/14 02:21:55;;;;;;;4.50;4.20;;;21.70;99.90;;;;;;5035585;28;20801;-78
2023/08/14 02:24:21;;;;;;;4.63;4.33;;;21.70;99.90;;;;;;5035786;28;20973;-79
2023/08/14 02:26:48;;;;;;;4.60;4.30;;;21.70;99.90;;;;;;5025296;28;20899;-78
2023/08/14 02:29:19;;;;;;;5.40;5.00;;;21.70;99.90;;;;;;5035565;28;20539;-78
2023/08/14 02:31:50;;;;;;;4.50;4.20;;;21.70;99.90;;;;;;5035745;28;20542;-81
2023/08/14 02:34:33;;;;;;;5.20;4.87;;;21.70;99.90;;;;;;5035980;28;20480;-81
2023/08/14 02:37:00;;;;;;;5.80;5.40;;;21.60;99.90;;;;;;5035573;28;20460;-80
2023/08/14 02:39:27;;;;;;;5.53;5.13;;;21.60;99.90;;;;;;5036030;28;20554;-80
2023/08/14 02:41:54;;;;;;;4.80;4.50;;;21.60;99.90;;;;;;5035384;28;20472;-79
2023/08/14 02:44:20;;;;;;;4.73;4.33;;;21.60;99.90;;;;;;5024645;28;20502;-78
2023/08/14 02:46:51;;;;;;;4.97;4.57;;;21.60;99.90;;;;;;5034539;28;20563;-80
2023/08/14 02:49:18;;;;;;;6.10;5.60;;;21.60;99.90;;;;;;5035863;28;20457;-80
2023/08/14 02:51:45;;;;;;;4.57;4.27;;;21.60;99.90;;;;;;5035257;28;20472;-78
2023/08/14 02:54:12;;;;;;;4.90;4.50;;;21.60;99.90;;;;;;5035547;28;20484;-78
2023/08/14 02:56:39;;;;;;;5.73;5.23;;;21.50;99.90;;;;;;5035859;28;20519;-78
2023/08/14 02:59:06;;;;;;;5.37;4.97;;;21.50;99.90;;;;;;5034844;28;20460;-79
2023/08/14 03:01:35;;;;;;;6.23;5.73;;;21.50;99.90;;;;;;5035381;28;20464;-78
2023/08/14 03:04:03;;;;;;;5.00;4.60;;;21.50;99.90;;;;;;5035007;28;20467;-78
2023/08/14 03:06:31;;;;;;;5.00;4.60;;;21.50;99.90;;;;;;5035601;28;20571;-79
2023/08/14 03:08:58;;;;;;;5.43;4.93;;;21.40;99.90;;;;;;5035178;28;20810;-79
2023/08/14 03:11:25;;;;;;;5.53;5.17;;;21.40;99.90;;;;;;5035180;28;20551;-79
2023/08/14 03:13:52;;;;;;;5.80;5.30;;;21.40;99.90;;;;;;5034883;28;20555;-78
2023/08/14 03:16:19;;;;;;;5.10;4.70;;;21.40;99.90;;;;;;5035578;28;20535;-79
2023/08/14 03:18:46;;;;;;;4.53;4.23;;;21.30;99.90;;;;;;5035005;28;20560;-81
2023/08/14 03:21:14;;;;;;;5.47;4.97;;;21.30;99.90;;;;;;5025373;28;20460;-81
2023/08/14 03:23:43;;;;;;;4.70;4.30;;;21.30;99.90;;;;;;5035203;28;20485;-81
2023/08/14 03:26:11;;;;;;;5.10;4.80;;;21.30;99.90;;;;;;5034490;28;20464;-81
2023/08/14 03:28:38;;;;;;;4.73;4.33;;;21.30;99.90;;;;;;5034774;28;20469;-81
2023/08/14 03:31:05;;;;;;;5.03;4.63;;;21.30;99.90;;;;;;5034009;28;20471;-81
2023/08/14 03:33:32;;;;;;;4.90;4.57;;;21.30;99.90;;;;;;5035002;28;20551;-81
2023/08/14 03:35:59;;;;;;;4.57;4.17;;;21.20;99.90;;;;;;5034180;28;20571;-79
2023/08/14 03:38:27;;;;;;;4.43;4.13;;;21.20;99.90;;;;;;5034858;28;20495;-81
2023/08/14 03:40:54;;;;;;;5.10;4.70;;;21.20;99.90;;;;;;5035022;28;20472;-79
2023/08/14 03:43:21;;;;;;;5.03;4.73;;;21.20;99.90;;;;;;5034505;28;20775;-81
2023/08/14 03:45:48;;;;;;;5.10;4.70;;;21.20;99.90;;;;;;5035436;28;20562;-79
2023/08/14 03:48:15;;;;;;;4.57;4.10;;;21.20;99.90;;;;;;5034759;28;20460;-81
2023/08/14 03:50:46;;;;;;;4.70;4.40;;;21.10;99.90;;;;;;5037278;28;20471;-81
2023/08/14 03:53:13;;;;;;;4.70;4.30;;;21.10;99.90;;;;;;5037854;28;20456;-81
2023/08/14 03:55:44;;;;;;;5.23;4.83;;;21.10;99.90;;;;;;5037984;28;20555;-81
2023/08/14 03:58:11;;;;;;;5.33;4.83;;;21.10;99.90;;;;;;5036921;28;20502;-79
2023/08/14 04:00:37;;;;;;;4.97;4.57;;;21.10;99.90;;;;;;5036827;28;20461;-81
2023/08/14 04:03:05;;;;;;;4.70;4.40;;;21.00;99.90;;;;;;5037427;28;20473;-79
2023/08/14 04:05:32;;;;;;;6.03;5.43;;;21.00;99.90;;;;;;5036161;28;20484;-79
2023/08/14 04:07:59;;;;;;;6.30;5.87;;;21.00;99.90;;;;;;5034522;28;20957;-81
2023/08/14 04:10:25;;;;;;;6.27;5.77;;;21.00;99.90;;;;;;5035957;28;20543;-79
2023/08/14 04:12:54;;;;;;;6.53;5.97;;;21.00;99.90;;;;;;5034717;28;21007;-81
2023/08/14 04:15:21;;;;;;;6.20;5.70;;;21.00;99.90;;;;;;5034602;28;20527;-79
2023/08/14 04:17:48;;;;;;;5.90;5.47;;;21.00;99.90;;;;;;5038527;28;20468;-81
2023/08/14 04:20:17;;;;;;;6.00;5.60;;;21.00;99.90;;;;;;5036716;28;20536;-79
2023/08/14 04:22:44;;;;;;;5.87;5.47;;;20.90;99.90;;;;;;5034013;28;20464;-79
2023/08/14 04:25:11;;;;;;;6.17;5.77;;;21.00;99.90;;;;;;5033365;28;20476;-81
2023/08/14 04:27:38;;;;;;;5.77;5.17;;;21.00;99.90;;;;;;5034068;28;20543;-79
2023/08/14 04:30:10;;;;;;;5.73;5.27;;;20.90;99.90;;;;;;5033352;28;20555;-79
2023/08/14 04:32:37;;;;;;;6.23;5.73;;;20.90;99.90;;;;;;5033005;28;20886;-80
2023/08/14 04:35:05;;;;;;;6.30;5.80;;;20.90;99.90;;;;;;5033153;28;20468;-81
2023/08/14 04:37:31;;;;;;;5.70;5.20;;;20.90;99.90;;;;;;5033539;28;20472;-79
2023/08/14 04:40:02;;;;;;;6.53;6.03;;;20.90;99.90;;;;;;5033141;28;20808;-79
2023/08/14 04:42:33;;;;;;;7.03;6.53;;;20.90;99.90;;;;;;5033525;28;20472;-79
2023/08/14 04:45:00;;;;;;;7.13;6.53;;;20.90;99.90;;;;;;5033134;28;20484;-79
2023/08/14 04:47:28;;;;;;;7.87;7.07;;;20.90;99.90;;;;;;5033685;28;20472;-79
2023/08/14 04:49:56;;;;;;;6.83;6.23;;;20.90;99.90;;;;;;5033608;28;20479;-80
2023/08/14 04:52:23;;;;;;;6.40;5.90;;;20.90;99.90;;;;;;5032884;28;20508;-81
2023/08/14 04:54:50;;;;;;;6.33;5.77;;;20.90;99.90;;;;;;5033361;28;20530;-81
2023/08/14 04:57:17;;;;;;;6.50;6.00;;;21.00;99.90;;;;;;5033180;28;20850;-81
2023/08/14 04:59:44;;;;;;;6.60;6.00;;;21.00;99.90;;;;;;5033629;28;20814;-79
2023/08/14 05:02:11;;;;;;;6.00;5.50;;;21.00;99.90;;;;;;5032870;28;20539;-81
2023/08/14 05:04:39;;;;;;;6.03;5.10;;;21.00;99.90;;;;;;5033614;28;20547;-81
2023/08/14 05:07:06;;;;;;;5.87;5.37;;;21.00;99.90;;;;;;5032769;28;20476;-81
2023/08/14 05:09:33;;;;;;;5.13;4.73;;;21.00;99.90;;;;;;5033221;28;20468;-81
2023/08/14 05:12:02;;;;;;;5.73;5.33;;;21.00;99.90;;;;;;5033039;28;20527;-80
2023/08/14 05:14:29;;;;;;;6.07;5.67;;;21.10;99.90;;;;;;5033252;28;20480;-81
2023/08/14 05:16:56;;;;;;;5.83;5.33;;;21.10;99.90;;;;;;5033156;28;20810;-81
2023/08/14 05:19:23;;;;;;;5.90;5.40;;;21.10;99.90;;;;;;5032912;28;20486;-81
2023/08/14 05:21:51;;;;;;;6.20;5.77;;;21.10;99.90;;;;;;5033154;28;20809;-81
2023/08/14 05:24:18;;;;;;;5.50;5.10;;;21.10;99.90;;;;;;5032408;28;20472;-80
2023/08/14 05:26:45;;;;;;;6.73;6.13;;;21.10;99.90;;;;;;5032951;28;20472;-81
2023/08/14 05:29:12;;;;;;;7.07;6.47;;;21.20;99.90;;;;;;5032271;28;20472;-81
2023/08/14 05:31:39;;;;;;;5.90;5.40;;;21.20;99.90;;;;;;5033135;28;20507;-81
2023/08/14 05:34:06;;;;;;;6.43;6.00;;;21.30;99.90;;;;;;5032384;28;20471;-78
2023/08/14 05:36:33;;;;;;;8.57;7.20;;;21.30;99.90;;;;;;5032735;28;20876;-78
2023/08/14 05:39:02;;;;;;;6.57;5.97;;;21.30;99.90;;;;;;5033183;28;20483;-81
2023/08/14 05:41:29;;;;;;;7.63;6.70;;;21.40;99.90;;;;;;5032619;28;20937;-80
2023/08/14 05:43:56;;;;;;;6.50;6.00;;;21.40;99.90;;;;;;5033067;28;20575;-79
2023/08/14 05:46:24;;;;;;;6.50;5.97;;;21.40;99.90;;;;;;5035861;28;20468;-78
2023/08/14 05:48:52;;;;;;;7.13;5.50;;;21.50;99.90;;;;;;5036389;28;20475;-81
2023/08/14 05:51:19;;;;;;;6.57;6.07;;;21.50;99.90;;;;;;5035947;28;20468;-78
2023/08/14 05:53:46;;;;;;;6.37;5.77;;;21.50;99.90;;;;;;5036610;28;21030;-78
2023/08/14 05:56:14;;;;;;;7.03;6.23;;;21.60;99.90;;;;;;5036083;28;20542;-81
2023/08/14 05:58:41;;;;;;;6.10;5.60;;;21.60;99.90;;;;;;5036740;28;20468;-78
2023/08/14 06:01:08;;;;;;;6.60;6.00;;;21.60;99.90;;;;;;5035486;28;20468;-79
2023/08/14 06:03:35;;;;;;;6.90;6.30;;;21.60;99.90;;;;;;5036702;28;20839;-78
2023/08/14 06:06:04;;;;;;;6.37;5.87;;;21.70;99.90;;;;;;5036190;28;20537;-80
2023/08/14 06:08:30;;;;;;;6.00;5.43;;;21.70;99.90;;;;;;5035823;28;20468;-80
2023/08/14 06:10:57;;;;;;;7.07;5.57;;;21.70;99.90;;;;;;5036435;28;21026;-80
2023/08/14 06:13:26;;;;;;;8.10;6.37;;;21.80;99.90;;;;;;5035455;28;20805;-80
2023/08/14 06:15:52;;;;;;;6.17;5.67;;;21.80;99.90;;;;;;5036219;28;20851;-80
2023/08/14 06:18:19;;;;;;;5.93;5.40;;;21.90;99.90;;;;;;5035479;28;20471;-81
2023/08/14 06:20:46;;;;;;;6.70;6.10;;;21.90;99.90;;;;;;5036067;28;20466;-81
2023/08/14 06:23:13;;;;;;;5.87;5.37;;;21.90;99.90;;;;;;5035412;28;20482;-81
2023/08/14 06:25:40;;;;;;;6.50;5.90;;;22.00;99.90;;;;;;5035767;28;20475;-81
2023/08/14 06:28:07;;;;;;;5.80;5.40;;;22.00;99.90;;;;;;5036049;28;20570;-78
2023/08/14 06:30:35;;;;;;;8.10;6.63;;;22.10;99.90;;;;;;5035435;28;20514;-78
2023/08/14 06:33:02;;;;;;;6.77;6.17;;;22.10;99.90;;;;;;5036001;28;20835;-78
2023/08/14 06:35:29;;;;;;;6.23;5.73;;;22.10;99.90;;;;;;5035064;28;20460;-78
2023/08/14 06:37:56;;;;;;;6.67;6.07;;;22.20;99.90;;;;;;5035619;28;20463;-78
2023/08/14 06:40:23;;;;;;;6.80;6.07;;;22.20;99.90;;;;;;5034505;28;20472;-78
2023/08/14 06:42:52;;;;;;;7.90;6.27;;;22.30;99.90;;;;;;5035660;28;20503;-79
2023/08/14 06:45:19;;;;;;;7.87;6.47;;;22.30;99.90;;;;;;5035143;28;20938;-78
2023/08/14 06:47:47;;;;;;;7.73;5.70;;;22.40;99.90;;;;;;5035528;28;20510;-78
2023/08/14 06:50:14;;;;;;;6.73;6.10;;;22.50;99.90;;;;;;5034119;28;21064;-78
2023/08/14 06:52:41;;;;;;;6.63;5.97;;;22.50;99.90;;;;;;5025559;28;20464;-78
2023/08/14 06:55:09;;;;;;;5.60;5.20;;;22.60;99.90;;;;;;5034875;28;20499;-78
2023/08/14 06:57:36;;;;;;;6.33;5.73;;;22.70;99.90;;;;;;5034697;28;20460;-78
2023/08/14 07:00:06;;;;;;;10.27;6.13;;;22.70;99.90;;;;;;5034956;28;20618;-78
2023/08/14 07:02:34;;;;;;;6.60;6.00;;;22.80;99.90;;;;;;5034475;28;20472;-78
2023/08/14 07:05:02;;;;;;;6.10;5.57;;;22.90;99.90;;;;;;5035025;28;20994;-78
2023/08/14 07:07:29;;;;;;;4.97;4.63;;;22.90;99.90;;;;;;5034348;28;20506;-78
2023/08/14 07:09:56;;;;;;;5.00;4.70;;;23.00;99.90;;;;;;5034766;28;20787;-77
2023/08/14 07:12:23;;;;;;;6.47;5.93;;;23.10;99.90;;;;;;5034480;28;20475;-78
2023/08/14 07:14:50;;;;;;;5.67;5.17;;;23.10;99.90;;;;;;5034436;28;20494;-77
2023/08/14 07:17:18;;;;;;;6.10;5.60;;;23.20;99.90;;;;;;5027425;28;20823;-78
2023/08/14 07:19:45;;;;;;;7.30;5.53;;;23.30;99.90;;;;;;5034641;28;20774;-77
2023/08/14 07:22:13;;;;;;;6.33;5.70;;;23.40;99.90;;;;;;5034298;28;20460;-77
2023/08/14 07:24:41;;;;;;;6.23;5.10;;;23.40;99.90;;;;;;5034148;28;20472;-77
2023/08/14 07:27:09;;;;;;;6.10;5.37;;;23.50;99.90;;;;;;5035070;28;20464;-78
2023/08/14 07:29:35;;;;;;;5.30;4.77;;;23.60;99.90;;;;;;5023980;28;20618;-79
2023/08/14 07:32:23;;;;;;;5.33;4.70;;;23.70;99.90;;;;;;5022767;28;20572;-79
2023/08/14 07:34:50;;;;;;;6.07;5.00;;;23.80;99.90;;;;;;5024185;28;20518;-81
2023/08/14 07:37:28;;;;;;;5.43;4.93;;;23.80;99.90;;;;;;5034840;28;20470;-81
2023/08/14 07:40:12;;;;;;;6.37;5.77;;;23.90;99.90;;;;;;5035354;28;20491;-79
2023/08/14 07:42:41;;;;;;;6.37;4.90;;;24.00;99.90;;;;;;5035083;28;20564;-79
2023/08/14 07:45:24;;;;;;;7.53;5.50;;;24.10;99.90;;;;;;5035196;28;20806;-78
2023/08/14 07:47:52;;;;;;;5.10;4.70;;;24.20;99.90;;;;;;5024158;28;20472;-80
2023/08/14 07:50:19;;;;;;;5.20;4.80;;;24.30;99.90;;;;;;5035162;28;20510;-81
2023/08/14 07:52:47;;;;;;;7.77;5.33;;;24.40;99.90;;;;;;5034504;28;20551;-81
2023/08/14 07:55:14;;;;;;;5.30;4.73;;;24.50;99.90;;;;;;5034680;28;20507;-78
2023/08/14 07:58:07;;;;;;;4.70;4.33;;;24.50;99.90;;;;;;5025656;28;20476;-79
2023/08/14 08:00:36;;;;;;;5.63;4.97;;;24.60;99.90;;;;;;5034935;28;20468;-79
2023/08/14 08:03:04;;;;;;;4.50;4.10;;;24.60;99.90;;;;;;5034663;28;20482;-78
2023/08/14 08:05:31;;;;;;;4.47;4.17;;;24.60;99.90;;;;;;5035876;28;20850;-81
2023/08/14 08:08:01;;;;;;;4.53;4.23;;;24.70;99.90;;;;;;5036411;28;20471;-81
2023/08/14 08:10:28;;;;;;;4.97;4.37;;;24.70;99.90;;;;;;5027599;28;20468;-79
2023/08/14 08:12:55;;;;;;;6.57;3.30;;;24.70;99.90;;;;;;5035080;28;20506;-78
2023/08/14 08:15:22;;;;;;;6.10;4.27;;;24.80;99.90;;;;;;5014421;28;21029;-81
2023/08/14 08:17:56;;;;;;;6.27;4.47;;;24.80;99.90;;;;;;5038558;28;20488;-80
2023/08/14 08:20:23;;;;;;;4.83;4.30;;;24.80;99.90;;;;;;5037501;28;21019;-80
2023/08/14 08:22:51;;;;;;;4.20;3.90;;;24.80;99.90;;;;;;5036307;28;20766;-79
2023/08/14 08:25:19;;;;;;;4.10;3.80;;;24.80;99.90;;;;;;5035948;28;20833;-81
2023/08/14 08:27:46;;;;;;;5.40;4.23;;;24.80;99.90;;;;;;5044463;28;20495;-78
2023/08/14 08:30:13;;;;;;;4.03;3.73;;;24.80;99.90;;;;;;5039729;28;20957;-78
2023/08/14 08:32:40;;;;;;;6.97;4.93;;;24.90;99.90;;;;;;5045819;28;20475;-81
2023/08/14 08:35:08;;;;;;;7.60;3.77;;;25.00;99.90;;;;;;5038636;28;20507;-81
2023/08/14 08:37:35;;;;;;;4.97;4.47;;;25.00;99.90;;;;;;5035839;28;20479;-81
2023/08/14 08:40:04;;;;;;;6.40;3.70;;;25.00;99.90;;;;;;5045719;28;20500;-80
2023/08/14 08:42:33;;;;;;;5.53;3.77;;;25.00;99.90;;;;;;5047527;28;20498;-80
2023/08/14 08:45:03;;;;;;;5.33;4.50;;;25.10;99.90;;;;;;5045156;28;20471;-79
2023/08/14 08:47:32;;;;;;;9.90;5.17;;;25.10;99.90;;;;;;5040785;28;20471;-80
2023/08/14 08:50:03;;;;;;;9.97;4.73;;;25.10;99.90;;;;;;5050570;28;20472;-80
2023/08/14 08:52:31;;;;;;;9.33;4.63;;;25.20;99.90;;;;;;5043242;28;20503;-79
2023/08/14 08:55:01;;;;;;;4.33;4.00;;;25.30;99.90;;;;;;5038197;28;20476;-79
2023/08/14 08:57:31;;;;;;;3.60;3.30;;;25.20;99.90;;;;;;5035723;28;20472;-80
2023/08/14 09:00:07;;;;;;;4.87;3.90;;;25.20;99.90;;;;;;5037883;28;20456;-79
2023/08/14 09:02:34;;;;;;;4.33;3.20;;;25.20;99.90;;;;;;5039984;28;20471;-79
2023/08/14 09:05:02;;;;;;;4.90;3.77;;;25.10;99.90;;;;;;5045312;28;20478;-81
2023/08/14 09:07:29;;;;;;;7.40;4.37;;;25.00;99.90;;;;;;5051319;28;20472;-80
2023/08/14 09:09:56;;;;;;;8.73;3.63;;;25.10;99.90;;;;;;5052510;28;20494;-80
2023/08/14 09:12:23;;;;;;;4.13;3.83;;;25.20;99.90;;;;;;5039419;28;20815;-79
2023/08/14 09:15:05;;;;;;;3.90;3.60;;;25.20;99.90;;;;;;5036003;28;20468;-78
2023/08/14 09:17:32;;;;;;;4.17;3.77;;;25.20;99.90;;;;;;5035603;28;20482;-81
2023/08/14 09:19:59;;;;;;;3.77;3.47;;;25.20;99.90;;;;;;5039266;28;20565;-81
2023/08/14 09:22:27;;;;;;;4.50;3.50;;;25.20;99.90;;;;;;5038006;28;20498;-80
2023/08/14 09:24:54;;;;;;;3.90;3.60;;;25.20;99.90;;;;;;5038271;28;20543;-79
2023/08/14 09:27:22;;;;;;;3.17;2.70;;;25.20;99.90;;;;;;5037716;28;20783;-78
2023/08/14 09:29:52;;;;;;;4.10;3.20;;;25.20;99.90;;;;;;5037732;28;20467;-81
2023/08/14 09:32:23;;;;;;;3.53;3.20;;;25.30;99.90;;;;;;5038250;28;20468;-80
2023/08/14 09:34:58;;;;;;;3.07;2.87;;;25.40;99.90;;;;;;5008212;28;20467;-80
2023/08/14 09:37:27;;;;;;;3.10;2.80;;;25.40;99.90;;;;;;5037816;28;20471;-80
2023/08/14 09:40:10;;;;;;;4.73;3.27;;;25.40;99.90;;;;;;5037427;28;20463;-81
2023/08/14 09:42:38;;;;;;;3.77;3.40;;;25.50;99.90;;;;;;5037142;28;20471;-80
2023/08/14 09:45:06;;;;;;;3.40;3.20;;;25.60;99.90;;;;;;5037407;28;20475;-79
2023/08/14 09:47:35;;;;;;;3.33;3.13;;;25.60;99.90;;;;;;5036888;28;20456;-78
2023/08/14 09:50:03;;;;;;;3.53;3.30;;;25.50;99.90;;;;;;5037030;28;20543;-78
2023/08/14 09:52:29;;;;;;;3.87;3.57;;;25.50;99.90;;;;;;5037054;28;21025;-78
2023/08/14 09:54:58;;;;;;;3.10;2.90;;;25.40;99.90;;;;;;5036086;28;20472;-78
2023/08/14 09:57:25;;;;;;;3.13;2.83;;;25.40;99.90;;;;;;5037722;28;20554;-81
2023/08/14 09:59:52;;;;;;;3.10;2.80;;;25.40;99.90;;;;;;5036983;28;20502;-80
2023/08/14 10:02:23;;;;;;;3.03;2.83;;;25.40;99.90;;;;;;5036836;28;20546;-81
2023/08/14 10:04:51;;;;;;;3.30;2.83;;;25.50;99.90;;;;;;5036595;28;20555;-79
2023/08/14 10:07:20;;;;;;;3.87;2.50;;;25.60;99.90;;;;;;5037405;28;20550;-81
2023/08/14 10:09:50;;;;;;;4.10;3.40;;;25.80;99.90;;;;;;5036325;28;20508;-81
2023/08/14 10:12:22;;;;;;;3.23;2.97;;;25.80;99.90;;;;;;5036640;28;20500;-79
2023/08/14 10:14:55;;;;;;;3.77;3.57;;;25.90;99.90;;;;;;5036060;28;20537;-79
2023/08/14 10:17:28;;;;;;;3.30;3.00;;;26.00;99.90;;;;;;5036442;28;20547;-79
2023/08/14 10:19:58;;;;;;;3.00;2.80;;;26.00;99.90;;;;;;5035600;28;20845;-81
2023/08/14 10:22:25;;;;;;;2.57;2.37;;;26.00;99.90;;;;;;5036443;28;20496;-79
2023/08/14 10:24:54;;;;;;;3.60;3.30;;;26.00;99.90;;;;;;5035620;28;20810;-79
2023/08/14 10:27:21;;;;;;;2.90;2.70;;;26.10;99.90;;;;;;5036360;28;20471;-78
2023/08/14 10:29:50;;;;;;;3.47;3.17;;;26.30;99.90;;;;;;5036935;28;20953;-80
2023/08/14 10:32:17;;;;;;;3.93;3.13;;;26.30;99.90;;;;;;5037148;28;20483;-78
2023/08/14 10:34:45;;;;;;;3.03;2.70;;;26.30;99.90;;;;;;5036196;28;20472;-80
2023/08/14 10:37:26;;;;;;;3.53;3.23;;;26.20;99.90;;;;;;5038341;28;20474;-80
2023/08/14 10:39:58;;;;;;;3.30;2.80;;;26.20;99.90;;;;;;5037572;28;20468;-80
2023/08/14 10:42:25;;;;;;;3.90;2.90;;;26.20;99.90;;;;;;5038287;28;20957;-80
2023/08/14 10:44:53;;;;;;;2.90;2.70;;;26.20;99.90;;;;;;5028514;28;20478;-80
2023/08/14 10:47:19;;;;;;;3.50;2.60;;;26.10;99.90;;;;;;5038132;28;20542;-80
2023/08/14 10:49:50;;;;;;;2.97;2.77;;;26.10;99.90;;;;;;5037674;28;20476;-80
2023/08/14 10:52:19;;;;;;;2.53;2.43;;;26.00;99.90;;;;;;5035920;28;20464;-79
2023/08/14 10:54:51;;;;;;;3.00;2.80;;;25.90;99.90;;;;;;5035579;28;20469;-80
2023/08/14 10:57:19;;;;;;;2.63;2.43;;;25.90;99.90;;;;;;5035518;28;20469;-79
2023/08/14 10:59:57;;;;;;;3.40;3.10;;;25.80;99.90;;;;;;5035467;28;20996;-81
2023/08/14 11:02:25;;;;;;;2.83;2.63;;;25.80;99.90;;;;;;5036846;28;20480;-80
2023/08/14 11:05:00;;;;;;;3.13;2.83;;;25.80;99.90;;;;;;5037366;28;20479;-78
2023/08/14 11:07:28;;;;;;;3.30;3.10;;;25.80;99.90;;;;;;5036938;28;20554;-79
2023/08/14 11:09:58;;;;;;;2.90;2.60;;;25.90;99.90;;;;;;5035589;28;20469;-78
2023/08/14 11:12:26;;;;;;;2.63;2.43;;;26.00;99.90;;;;;;5037413;28;20468;-80
2023/08/14 11:14:55;;;;;;;5.70;2.50;;;26.00;99.90;;;;;;5035867;28;20503;-79
2023/08/14 11:17:24;;;;;;;4.60;2.70;;;26.20;99.90;;;;;;5035896;28;20505;-80
2023/08/14 11:19:54;;;;;;;3.07;2.77;;;26.40;99.90;;;;;;5035807;28;20544;-80
2023/08/14 11:22:22;;;;;;;5.47;2.63;;;26.60;99.90;;;;;;5034449;28;20521;-81
2023/08/14 11:24:49;;;;;;;3.30;2.80;;;26.70;99.90;;;;;;5034861;28;20480;-80
2023/08/14 11:27:17;;;;;;;2.40;2.20;;;26.90;99.90;;;;;;5035916;28;20492;-80
2023/08/14 11:29:48;;;;;;;2.77;2.57;;;27.20;99.90;;;;;;5035095;28;20483;-81
2023/08/14 11:32:15;;;;;;;4.33;3.37;;;27.40;99.90;;;;;;5035840;28;20961;-81
2023/08/14 11:34:43;;;;;;;2.73;2.53;;;27.60;99.90;;;;;;5034593;28;20479;-80
2023/08/14 11:37:10;;;;;;;2.97;2.10;;;27.70;99.90;;;;;;5034922;28;20482;-78
2023/08/14 11:39:38;;;;;;;4.00;2.40;;;27.90;99.70;;;;;;5034826;28;20476;-79
2023/08/14 11:42:05;;;;;;;4.40;2.57;;;28.00;99.20;;;;;;5033440;28;20783;-79
2023/08/14 11:44:35;;;;;;;3.23;2.40;;;28.10;98.70;;;;;;5035066;28;20479;-79
2023/08/14 11:47:03;;;;;;;3.10;2.80;;;28.20;98.80;;;;;;5034219;28;20562;-80
2023/08/14 11:49:30;;;;;;;2.77;2.57;;;28.20;99.00;;;;;;5023590;28;20537;-79
2023/08/14 11:51:58;;;;;;;3.30;2.80;;;28.20;98.40;;;;;;5033810;28;20476;-79
2023/08/14 11:54:25;;;;;;;3.70;3.40;;;28.20;98.80;;;;;;5034459;28;20532;-79
2023/08/14 11:56:52;;;;;;;4.60;4.23;;;28.10;98.80;;;;;;5032902;28;20486;-81
2023/08/14 11:59:19;;;;;;;4.23;3.70;;;27.90;99.50;;;;;;5034296;28;20543;-79
2023/08/14 12:01:47;;;;;;;4.00;2.93;;;27.90;99.30;;;;;;5034280;28;20566;-79
2023/08/14 12:04:14;;;;;;;3.17;2.87;;;27.80;99.60;;;;;;5034520;28;20467;-79
2023/08/14 12:06:41;;;;;;;3.30;3.03;;;27.70;99.60;;;;;;5034141;28;20496;-78
2023/08/14 12:09:10;;;;;;;3.00;2.80;;;27.70;99.30;;;;;;5033506;28;20478;-81
2023/08/14 12:11:39;;;;;;;3.53;3.33;;;27.70;99.40;;;;;;5034185;28;20969;-79
2023/08/14 12:14:07;;;;;;;3.00;2.80;;;27.80;99.80;;;;;;5034002;28;20475;-78
2023/08/14 12:16:39;;;;;;;3.97;3.13;;;27.70;99.70;;;;;;5034301;28;20868;-81
2023/08/14 12:19:12;;;;;;;4.13;3.23;;;27.80;99.40;;;;;;5033731;28;20847;-78
2023/08/14 12:21:40;;;;;;;3.40;3.10;;;28.00;99.30;;;;;;5033817;28;20471;-79
2023/08/14 12:24:07;;;;;;;4.10;3.33;;;28.10;99.20;;;;;;5033237;28;20476;-80
2023/08/14 12:26:40;;;;;;;3.33;3.07;;;28.20;98.90;;;;;;5033845;28;20499;-78
2023/08/14 12:29:07;;;;;;;5.33;3.10;;;28.40;98.80;;;;;;5033178;28;20474;-79
2023/08/14 12:31:34;;;;;;;4.30;3.93;;;28.50;98.70;;;;;;5033859;28;20463;-78
2023/08/14 12:34:01;;;;;;;4.17;2.83;;;28.40;98.70;;;;;;5032947;28;20566;-79
2023/08/14 12:36:29;;;;;;;3.97;3.50;;;28.40;98.70;;;;;;5033804;28;20482;-79
2023/08/14 12:38:56;;;;;;;3.60;3.30;;;28.30;98.50;;;;;;5033034;28;20559;-81
2023/08/14 12:41:23;;;;;;;5.63;3.63;;;28.30;98.80;;;;;;5033467;28;20567;-79
2023/08/14 12:43:53;;;;;;;4.53;4.10;;;28.40;98.80;;;;;;5033681;28;20555;-79
2023/08/14 12:46:20;;;;;;;3.47;2.63;;;28.40;98.70;;;;;;5033065;28;20535;-81
2023/08/14 12:48:47;;;;;;;3.10;2.90;;;28.40;98.60;;;;;;5033538;28;20472;-81
2023/08/14 12:51:13;;;;;;;3.70;3.40;;;28.40;98.40;;;;;;5033203;28;20547;-81
2023/08/14 12:53:42;;;;;;;4.27;3.77;;;28.40;98.60;;;;;;5032509;28;20530;-81